Weather at Montezuma Airport

Public forecast

Using degrees Fahrenheit for public forecast. Weather courtesy of forecast.io.

Closest aviation weather report (METAR) to Montezuma Airport

Closest report is Sedona Airport, 15.1 nm (28.0 km) NNE. Retrieved 2021/06/25 03:55 UTC (8 minutes ago):

KSEZ 250355Z AUTO 00000KT 10SM CLR 20/12 A3011 RMK AO2

Closest aviation forecast (TAF) to Montezuma Airport

Closest forecast is Sedona Airport, 15.1 nm (28.0 km) NNE. Retrieved 2021-06-25 00:24 UTC (4 hours ago):

TAF KSEZ 242321Z 2500/2524 16008KT 6SM HZ VCTS FEW090CB SCT250 FM250300 04008KT P6SM FEW090 SCT250 FM251900 23008G15KT P6SM FEW110 SCT250